sensor_id;sensor_type;location;lat;lon;timestamp;P1;durP1;ratioP1;P2;durP2;ratioP2
74788;SDS011;63313;48.258;12.518;2023-03-31T00:05:14;4.720000000000001;;;2.08;;
74788;SDS011;63313;48.258;12.518;2023-03-31T00:10:43;5.25;;;2.7;;
74788;SDS011;63313;48.258;12.518;2023-03-31T00:16:10;5.83;;;3.0099999999999993;;
74788;SDS011;63313;48.258;12.518;2023-03-31T00:21:37;3.3599999999999994;;;2.33;;
74788;SDS011;63313;48.258;12.518;2023-03-31T00:27:04;6.88;;;2.7700000000000005;;
74788;SDS011;63313;48.258;12.518;2023-03-31T00:32:31;7.45;;;3.6100000000000003;;
74788;SDS011;63313;48.258;12.518;2023-03-31T00:37:58;4.6899999999999995;;;3.1800000000000006;;
74788;SDS011;63313;48.258;12.518;2023-03-31T00:43:27;6.7299999999999995;;;2.7399999999999998;;
74788;SDS011;63313;48.258;12.518;2023-03-31T00:48:55;4.369999999999999;;;3.03;;
74788;SDS011;63313;48.258;12.518;2023-03-31T00:54:23;4.69;;;3.5300000000000002;;
74788;SDS011;63313;48.258;12.518;2023-03-31T00:59:52;8.02;;;3.7599999999999993;;
74788;SDS011;63313;48.258;12.518;2023-03-31T01:05:20;7.6;;;3.81;;
74788;SDS011;63313;48.258;12.518;2023-03-31T01:10:49;8.62;;;3.5199999999999996;;
74788;SDS011;63313;48.258;12.518;2023-03-31T01:16:17;5.77;;;3.18;;
74788;SDS011;63313;48.258;12.518;2023-03-31T01:21:50;7.110000000000001;;;4.760000000000001;;
74788;SDS011;63313;48.258;12.518;2023-03-31T01:27:29;6.7299999999999995;;;4.36;;
74788;SDS011;63313;48.258;12.518;2023-03-31T01:33:08;7.18;;;4.160000000000001;;
74788;SDS011;63313;48.258;12.518;2023-03-31T01:39:01;9.14;;;4.56;;
74788;SDS011;63313;48.258;12.518;2023-03-31T01:44:37;7.33;;;4.82;;
74788;SDS011;63313;48.258;12.518;2023-03-31T01:50:10;7.459999999999999;;;4.53;;
74788;SDS011;63313;48.258;12.518;2023-03-31T01:55:45;11.81;;;4.67;;
74788;SDS011;63313;48.258;12.518;2023-03-31T02:01:14;7.779999999999999;;;4.16;;
74788;SDS011;63313;48.258;12.518;2023-03-31T02:06:44;12.069999999999999;;;4.4;;
74788;SDS011;63313;48.258;12.518;2023-03-31T02:12:11;9.88;;;4.9399999999999995;;
74788;SDS011;63313;48.258;12.518;2023-03-31T02:17:39;9.08;;;4.95;;
74788;SDS011;63313;48.258;12.518;2023-03-31T02:23:07;9.22;;;5.1000000000000005;;
74788;SDS011;63313;48.258;12.518;2023-03-31T02:28:36;8.440000000000001;;;4.99;;
74788;SDS011;63313;48.258;12.518;2023-03-31T02:34:03;11.799999999999999;;;5.619999999999999;;
74788;SDS011;63313;48.258;12.518;2023-03-31T02:39:31;10.72;;;6.130000000000001;;
74788;SDS011;63313;48.258;12.518;2023-03-31T02:45:00;10.34;;;5.57;;
74788;SDS011;63313;48.258;12.518;2023-03-31T02:50:28;13.669999999999998;;;6.730000000000001;;
74788;SDS011;63313;48.258;12.518;2023-03-31T02:55:59;11.83;;;5.75;;
74788;SDS011;63313;48.258;12.518;2023-03-31T03:01:36;22.849999999999998;;;7.090000000000001;;
74788;SDS011;63313;48.258;12.518;2023-03-31T03:07:06;8.3;;;5.1899999999999995;;
74788;SDS011;63313;48.258;12.518;2023-03-31T03:12:37;11.42;;;5.540000000000001;;
74788;SDS011;63313;48.258;12.518;2023-03-31T03:18:07;11.67;;;6.15;;
74788;SDS011;63313;48.258;12.518;2023-03-31T03:23:35;11.629999999999999;;;6.540000000000001;;
74788;SDS011;63313;48.258;12.518;2023-03-31T03:29:02;8.85;;;5.87;;
74788;SDS011;63313;48.258;12.518;2023-03-31T03:34:29;13.34;;;6.06;;
74788;SDS011;63313;48.258;12.518;2023-03-31T03:39:56;10.19;;;6.37;;
74788;SDS011;63313;48.258;12.518;2023-03-31T03:45:23;8.139999999999999;;;5.47;;
74788;SDS011;63313;48.258;12.518;2023-03-31T03:50:50;12.000000000000002;;;6.7299999999999995;;
74788;SDS011;63313;48.258;12.518;2023-03-31T03:56:17;29.689999999999998;;;16.75;;
74788;SDS011;63313;48.258;12.518;2023-03-31T04:01:44;46.22;;;32.339999999999996;;
74788;SDS011;63313;48.258;12.518;2023-03-31T04:07:11;9.059999999999999;;;6.6899999999999995;;
74788;SDS011;63313;48.258;12.518;2023-03-31T04:12:38;11.03;;;6.23;;
74788;SDS011;63313;48.258;12.518;2023-03-31T04:18:05;14.459999999999999;;;6.380000000000001;;
74788;SDS011;63313;48.258;12.518;2023-03-31T04:23:33;11.31;;;5.65;;
74788;SDS011;63313;48.258;12.518;2023-03-31T04:29:00;14.419999999999998;;;6.8100000000000005;;
74788;SDS011;63313;48.258;12.518;2023-03-31T04:34:27;13.14;;;7.2;;
74788;SDS011;63313;48.258;12.518;2023-03-31T04:39:54;17.62;;;7.17;;
74788;SDS011;63313;48.258;12.518;2023-03-31T04:45:21;14.77;;;5.970000000000001;;
74788;SDS011;63313;48.258;12.518;2023-03-31T04:50:48;11.43;;;6.5200000000000005;;
74788;SDS011;63313;48.258;12.518;2023-03-31T04:56:15;10.969999999999999;;;6.290000000000001;;
74788;SDS011;63313;48.258;12.518;2023-03-31T05:01:42;17.139999999999997;;;6.790000000000001;;
74788;SDS011;63313;48.258;12.518;2023-03-31T05:07:09;16.270000000000003;;;6.720000000000001;;
74788;SDS011;63313;48.258;12.518;2023-03-31T05:12:37;17.41;;;7.360000000000001;;
74788;SDS011;63313;48.258;12.518;2023-03-31T05:18:04;15.060000000000002;;;7.3199999999999985;;
74788;SDS011;63313;48.258;12.518;2023-03-31T05:23:31;12.669999999999998;;;7.289999999999999;;
74788;SDS011;63313;48.258;12.518;2023-03-31T05:28:58;15.77;;;7.57;;
74788;SDS011;63313;48.258;12.518;2023-03-31T05:34:25;14.25;;;8.059999999999999;;
74788;SDS011;63313;48.258;12.518;2023-03-31T05:39:52;18.96;;;9.15;;
74788;SDS011;63313;48.258;12.518;2023-03-31T05:45:19;14.61;;;8.77;;
74788;SDS011;63313;48.258;12.518;2023-03-31T05:50:46;21.32;;;11.040000000000003;;
74788;SDS011;63313;48.258;12.518;2023-03-31T05:56:13;19.32;;;11.140000000000002;;
74788;SDS011;63313;48.258;12.518;2023-03-31T06:01:40;13.25;;;9.040000000000001;;
74788;SDS011;63313;48.258;12.518;2023-03-31T06:07:07;19.369999999999997;;;9.510000000000002;;
74788;SDS011;63313;48.258;12.518;2023-03-31T06:12:34;17.68;;;10.129999999999999;;
74788;SDS011;63313;48.258;12.518;2023-03-31T06:18:02;21.65;;;11.71;;
74788;SDS011;63313;48.258;12.518;2023-03-31T06:23:29;23.760000000000005;;;11.91;;
74788;SDS011;63313;48.258;12.518;2023-03-31T06:28:56;15.4;;;10.72;;
74788;SDS011;63313;48.258;12.518;2023-03-31T06:34:23;19.15;;;10.860000000000001;;
74788;SDS011;63313;48.258;12.518;2023-03-31T06:39:50;17.699999999999996;;;10.98;;
74788;SDS011;63313;48.258;12.518;2023-03-31T06:45:17;18.56;;;11.05;;
74788;SDS011;63313;48.258;12.518;2023-03-31T06:50:44;17.82;;;9.91;;
74788;SDS011;63313;48.258;12.518;2023-03-31T06:56:11;16.540000000000003;;;9.309999999999999;;
74788;SDS011;63313;48.258;12.518;2023-03-31T07:01:38;18.03;;;9.709999999999999;;
74788;SDS011;63313;48.258;12.518;2023-03-31T07:07:05;15.2;;;9.88;;
74788;SDS011;63313;48.258;12.518;2023-03-31T07:12:32;14.629999999999999;;;9.56;;
74788;SDS011;63313;48.258;12.518;2023-03-31T07:17:59;15.809999999999999;;;9.16;;
74788;SDS011;63313;48.258;12.518;2023-03-31T07:23:26;14.709999999999999;;;9.430000000000001;;
74788;SDS011;63313;48.258;12.518;2023-03-31T07:28:53;17.44;;;9.13;;
74788;SDS011;63313;48.258;12.518;2023-03-31T07:34:20;18.87;;;8.96;;
74788;SDS011;63313;48.258;12.518;2023-03-31T07:39:47;12.780000000000001;;;7.489999999999999;;
74788;SDS011;63313;48.258;12.518;2023-03-31T07:45:15;13.190000000000001;;;7.590000000000001;;
74788;SDS011;63313;48.258;12.518;2023-03-31T07:50:42;18.26;;;7.08;;
74788;SDS011;63313;48.258;12.518;2023-03-31T07:56:09;14.59;;;7.0;;
74788;SDS011;63313;48.258;12.518;2023-03-31T08:01:36;17.360000000000003;;;6.719999999999999;;
74788;SDS011;63313;48.258;12.518;2023-03-31T08:07:03;15.27;;;7.43;;
74788;SDS011;63313;48.258;12.518;2023-03-31T08:12:30;13.61;;;6.989999999999999;;
74788;SDS011;63313;48.258;12.518;2023-03-31T08:17:57;18.13;;;7.69;;
74788;SDS011;63313;48.258;12.518;2023-03-31T08:23:24;12.57;;;6.510000000000001;;
74788;SDS011;63313;48.258;12.518;2023-03-31T08:28:51;15.559999999999999;;;6.7299999999999995;;
74788;SDS011;63313;48.258;12.518;2023-03-31T08:34:19;17.750000000000004;;;6.840000000000001;;
74788;SDS011;63313;48.258;12.518;2023-03-31T08:39:46;16.21;;;7.67;;
74788;SDS011;63313;48.258;12.518;2023-03-31T08:45:15;24.88;;;9.23;;
74788;SDS011;63313;48.258;12.518;2023-03-31T08:50:45;16.830000000000002;;;8.83;;
74788;SDS011;63313;48.258;12.518;2023-03-31T08:56:14;13.819999999999999;;;8.389999999999997;;
74788;SDS011;63313;48.258;12.518;2023-03-31T09:01:43;13.940000000000001;;;7.69;;
74788;SDS011;63313;48.258;12.518;2023-03-31T09:07:14;13.330000000000002;;;7.200000000000001;;
74788;SDS011;63313;48.258;12.518;2023-03-31T09:12:44;13.770000000000001;;;7.039999999999999;;
74788;SDS011;63313;48.258;12.518;2023-03-31T09:18:13;12.52;;;7.130000000000001;;
74788;SDS011;63313;48.258;12.518;2023-03-31T09:23:43;16.14;;;7.9;;
74788;SDS011;63313;48.258;12.518;2023-03-31T09:29:12;11.89;;;7.029999999999999;;
74788;SDS011;63313;48.258;12.518;2023-03-31T09:34:40;14.0;;;7.08;;
74788;SDS011;63313;48.258;12.518;2023-03-31T09:40:12;11.629999999999999;;;7.43;;
74788;SDS011;63313;48.258;12.518;2023-03-31T09:45:42;15.02;;;7.13;;
74788;SDS011;63313;48.258;12.518;2023-03-31T09:51:13;15.059999999999999;;;6.659999999999999;;
74788;SDS011;63313;48.258;12.518;2023-03-31T09:56:44;8.35;;;4.9;;
74788;SDS011;63313;48.258;12.518;2023-03-31T10:02:20;11.03;;;5.299999999999999;;
74788;SDS011;63313;48.258;12.518;2023-03-31T10:07:48;7.92;;;4.5;;
74788;SDS011;63313;48.258;12.518;2023-03-31T10:13:16;8.1;;;4.49;;
74788;SDS011;63313;48.258;12.518;2023-03-31T10:18:44;8.05;;;4.359999999999999;;
74788;SDS011;63313;48.258;12.518;2023-03-31T10:24:15;8.650000000000002;;;4.319999999999999;;
74788;SDS011;63313;48.258;12.518;2023-03-31T10:29:43;6.15;;;3.9599999999999995;;
74788;SDS011;63313;48.258;12.518;2023-03-31T10:35:13;7.44;;;3.8900000000000006;;
74788;SDS011;63313;48.258;12.518;2023-03-31T10:40:42;8.760000000000002;;;3.7399999999999993;;
74788;SDS011;63313;48.258;12.518;2023-03-31T10:46:15;9.229999999999999;;;4.2;;
74788;SDS011;63313;48.258;12.518;2023-03-31T10:51:47;5.3500000000000005;;;3.6300000000000003;;
74788;SDS011;63313;48.258;12.518;2023-03-31T10:57:15;5.95;;;3.7699999999999996;;
74788;SDS011;63313;48.258;12.518;2023-03-31T11:02:46;7.529999999999999;;;3.9499999999999993;;
74788;SDS011;63313;48.258;12.518;2023-03-31T11:08:21;7.039999999999999;;;3.6100000000000003;;
74788;SDS011;63313;48.258;12.518;2023-03-31T11:13:53;8.05;;;3.8400000000000007;;
74788;SDS011;63313;48.258;12.518;2023-03-31T11:19:27;4.750000000000001;;;3.41;;
74788;SDS011;63313;48.258;12.518;2023-03-31T11:25:13;5.7299999999999995;;;4.06;;
74788;SDS011;63313;48.258;12.518;2023-03-31T11:30:42;5.210000000000001;;;3.46;;
74788;SDS011;63313;48.258;12.518;2023-03-31T11:36:15;8.06;;;3.6;;
74788;SDS011;63313;48.258;12.518;2023-03-31T11:41:47;5.6;;;3.3899999999999997;;
74788;SDS011;63313;48.258;12.518;2023-03-31T11:47:16;5.7;;;3.8699999999999997;;
74788;SDS011;63313;48.258;12.518;2023-03-31T11:52:46;5.92;;;3.2700000000000005;;
74788;SDS011;63313;48.258;12.518;2023-03-31T11:58:17;5.67;;;3.3299999999999996;;
74788;SDS011;63313;48.258;12.518;2023-03-31T12:03:49;7.739999999999999;;;3.53;;
74788;SDS011;63313;48.258;12.518;2023-03-31T12:09:20;6.36;;;3.5199999999999996;;
74788;SDS011;63313;48.258;12.518;2023-03-31T12:14:50;6.540000000000001;;;2.63;;
74788;SDS011;63313;48.258;12.518;2023-03-31T12:20:22;2.44;;;2.12;;
74788;SDS011;63313;48.258;12.518;2023-03-31T12:25:51;8.31;;;2.3199999999999994;;
74788;SDS011;63313;48.258;12.518;2023-03-31T12:31:20;3.46;;;2.57;;
74788;SDS011;63313;48.258;12.518;2023-03-31T12:36:53;4.709999999999999;;;2.2199999999999998;;
74788;SDS011;63313;48.258;12.518;2023-03-31T12:42:29;4.880000000000001;;;1.89;;
74788;SDS011;63313;48.258;12.518;2023-03-31T12:48:04;2.64;;;2.05;;
74788;SDS011;63313;48.258;12.518;2023-03-31T12:53:34;4.46;;;1.77;;
74788;SDS011;63313;48.258;12.518;2023-03-31T12:59:16;2.12;;;1.64;;
74788;SDS011;63313;48.258;12.518;2023-03-31T13:04:43;4.91;;;1.8900000000000001;;
74788;SDS011;63313;48.258;12.518;2023-03-31T13:10:27;2.37;;;1.4999999999999998;;
74788;SDS011;63313;48.258;12.518;2023-03-31T13:15:55;2.26;;;1.72;;
74788;SDS011;63313;48.258;12.518;2023-03-31T13:21:23;5.31;;;2.3;;
74788;SDS011;63313;48.258;12.518;2023-03-31T13:26:51;2.42;;;1.8800000000000003;;
74788;SDS011;63313;48.258;12.518;2023-03-31T13:32:19;2.7199999999999998;;;1.48;;
74788;SDS011;63313;48.258;12.518;2023-03-31T13:37:53;2.31;;;1.7600000000000002;;
74788;SDS011;63313;48.258;12.518;2023-03-31T13:43:27;3.79;;;2.31;;
74788;SDS011;63313;48.258;12.518;2023-03-31T13:48:59;1.95;;;1.8399999999999999;;
74788;SDS011;63313;48.258;12.518;2023-03-31T13:54:37;2.2600000000000002;;;2.0700000000000003;;
74788;SDS011;63313;48.258;12.518;2023-03-31T14:00:14;7.0;;;2.56;;
74788;SDS011;63313;48.258;12.518;2023-03-31T14:05:46;6.0;;;2.14;;
74788;SDS011;63313;48.258;12.518;2023-03-31T14:11:17;4.54;;;2.38;;
74788;SDS011;63313;48.258;12.518;2023-03-31T14:16:44;10.9;;;2.79;;
74788;SDS011;63313;48.258;12.518;2023-03-31T14:22:15;5.16;;;2.5100000000000002;;
74788;SDS011;63313;48.258;12.518;2023-03-31T14:27:47;5.36;;;1.8599999999999999;;
74788;SDS011;63313;48.258;12.518;2023-03-31T14:33:21;2.76;;;1.9099999999999997;;
74788;SDS011;63313;48.258;12.518;2023-03-31T14:38:50;2.49;;;1.1699999999999997;;
74788;SDS011;63313;48.258;12.518;2023-03-31T14:44:18;2.3499999999999996;;;1.22;;
74788;SDS011;63313;48.258;12.518;2023-03-31T14:49:45;4.630000000000001;;;1.16;;
74788;SDS011;63313;48.258;12.518;2023-03-31T14:55:13;2.6900000000000004;;;0.8600000000000001;;
74788;SDS011;63313;48.258;12.518;2023-03-31T15:00:40;2.87;;;1.0499999999999998;;
74788;SDS011;63313;48.258;12.518;2023-03-31T15:06:07;4.890000000000001;;;1.7599999999999998;;
74788;SDS011;63313;48.258;12.518;2023-03-31T15:11:34;4.0;;;1.19;;
74788;SDS011;63313;48.258;12.518;2023-03-31T15:17:02;3.6300000000000003;;;1.5299999999999998;;
74788;SDS011;63313;48.258;12.518;2023-03-31T15:22:29;1.41;;;1.2600000000000002;;
74788;SDS011;63313;48.258;12.518;2023-03-31T15:27:56;1.44;;;1.03;;
74788;SDS011;63313;48.258;12.518;2023-03-31T15:33:25;4.22;;;1.1199999999999999;;
74788;SDS011;63313;48.258;12.518;2023-03-31T15:38:55;2.21;;;1.06;;
74788;SDS011;63313;48.258;12.518;2023-03-31T15:44:27;2.23;;;0.8800000000000001;;
74788;SDS011;63313;48.258;12.518;2023-03-31T15:49:56;2.33;;;1.29;;
74788;SDS011;63313;48.258;12.518;2023-03-31T15:55:24;1.35;;;0.8400000000000001;;
74788;SDS011;63313;48.258;12.518;2023-03-31T16:00:51;2.62;;;0.71;;
74788;SDS011;63313;48.258;12.518;2023-03-31T16:06:20;2.93;;;0.72;;
74788;SDS011;63313;48.258;12.518;2023-03-31T16:11:48;1.3;;;0.9400000000000001;;
74788;SDS011;63313;48.258;12.518;2023-03-31T16:17:19;1.5299999999999998;;;1.0299999999999998;;
74788;SDS011;63313;48.258;12.518;2023-03-31T16:22:48;1.9100000000000001;;;1.04;;
74788;SDS011;63313;48.258;12.518;2023-03-31T16:28:18;3.18;;;0.97;;
74788;SDS011;63313;48.258;12.518;2023-03-31T16:33:54;1.4;;;0.78;;
74788;SDS011;63313;48.258;12.518;2023-03-31T16:39:21;2.38;;;0.8600000000000001;;
74788;SDS011;63313;48.258;12.518;2023-03-31T16:44:48;2.4;;;1.0299999999999998;;
74788;SDS011;63313;48.258;12.518;2023-03-31T16:50:15;2.84;;;1.0299999999999998;;
74788;SDS011;63313;48.258;12.518;2023-03-31T16:55:42;3.3299999999999996;;;0.79;;
74788;SDS011;63313;48.258;12.518;2023-03-31T17:01:10;2.38;;;1.0799999999999998;;
74788;SDS011;63313;48.258;12.518;2023-03-31T17:06:37;2.48;;;0.9099999999999999;;
74788;SDS011;63313;48.258;12.518;2023-03-31T17:12:04;2.52;;;1.38;;
74788;SDS011;63313;48.258;12.518;2023-03-31T17:17:31;3.1999999999999997;;;0.9099999999999999;;
74788;SDS011;63313;48.258;12.518;2023-03-31T17:22:58;1.5399999999999998;;;0.8400000000000001;;
74788;SDS011;63313;48.258;12.518;2023-03-31T17:28:25;4.02;;;1.0999999999999999;;
74788;SDS011;63313;48.258;12.518;2023-03-31T17:33:52;1.9100000000000001;;;1.2099999999999997;;
74788;SDS011;63313;48.258;12.518;2023-03-31T17:39:19;1.8;;;1.29;;
74788;SDS011;63313;48.258;12.518;2023-03-31T17:44:46;4.51;;;1.73;;
74788;SDS011;63313;48.258;12.518;2023-03-31T17:50:14;3.7399999999999998;;;1.26;;
74788;SDS011;63313;48.258;12.518;2023-03-31T17:55:41;3.9099999999999993;;;2.1699999999999995;;
74788;SDS011;63313;48.258;12.518;2023-03-31T18:01:09;4.909999999999999;;;1.1099999999999999;;
74788;SDS011;63313;48.258;12.518;2023-03-31T18:06:36;1.34;;;1.0699999999999998;;
74788;SDS011;63313;48.258;12.518;2023-03-31T18:12:03;4.76;;;1.18;;
74788;SDS011;63313;48.258;12.518;2023-03-31T18:17:30;4.7;;;1.1;;
74788;SDS011;63313;48.258;12.518;2023-03-31T18:22:57;1.65;;;0.96;;
74788;SDS011;63313;48.258;12.518;2023-03-31T18:28:24;0.99;;;0.95;;
74788;SDS011;63313;48.258;12.518;2023-03-31T18:33:52;1.75;;;0.7299999999999999;;
74788;SDS011;63313;48.258;12.518;2023-03-31T18:39:19;7.06;;;0.85;;
74788;SDS011;63313;48.258;12.518;2023-03-31T18:44:46;0.76;;;0.69;;
74788;SDS011;63313;48.258;12.518;2023-03-31T18:50:13;1.05;;;0.67;;
74788;SDS011;63313;48.258;12.518;2023-03-31T18:55:40;0.9899999999999999;;;0.71;;
74788;SDS011;63313;48.258;12.518;2023-03-31T19:01:08;0.67;;;0.67;;
74788;SDS011;63313;48.258;12.518;2023-03-31T19:06:35;2.33;;;0.82;;
74788;SDS011;63313;48.258;12.518;2023-03-31T19:12:02;1.8800000000000001;;;0.8200000000000001;;
74788;SDS011;63313;48.258;12.518;2023-03-31T19:17:29;2.53;;;0.8800000000000001;;
74788;SDS011;63313;48.258;12.518;2023-03-31T19:22:56;1.7899999999999998;;;1.0100000000000002;;
74788;SDS011;63313;48.258;12.518;2023-03-31T19:28:24;1.65;;;0.99;;
74788;SDS011;63313;48.258;12.518;2023-03-31T19:33:51;3.3200000000000003;;;0.9;;
74788;SDS011;63313;48.258;12.518;2023-03-31T19:39:18;2.04;;;1.09;;
74788;SDS011;63313;48.258;12.518;2023-03-31T19:44:45;3.45;;;1.78;;
74788;SDS011;63313;48.258;12.518;2023-03-31T19:50:12;3.11;;;1.4000000000000001;;
74788;SDS011;63313;48.258;12.518;2023-03-31T19:55:39;4.33;;;1.2;;
74788;SDS011;63313;48.258;12.518;2023-03-31T20:01:07;3.8800000000000003;;;0.96;;
74788;SDS011;63313;48.258;12.518;2023-03-31T20:06:35;2.96;;;1.19;;
74788;SDS011;63313;48.258;12.518;2023-03-31T20:12:02;2.5300000000000002;;;1.04;;
74788;SDS011;63313;48.258;12.518;2023-03-31T20:17:29;4.3;;;0.9199999999999999;;
74788;SDS011;63313;48.258;12.518;2023-03-31T20:22:56;1.8199999999999998;;;0.6300000000000001;;
74788;SDS011;63313;48.258;12.518;2023-03-31T20:28:23;1.1199999999999999;;;0.65;;
74788;SDS011;63313;48.258;12.518;2023-03-31T20:33:50;1.8;;;1.0399999999999998;;
74788;SDS011;63313;48.258;12.518;2023-03-31T20:39:18;2.98;;;0.9099999999999999;;
74788;SDS011;63313;48.258;12.518;2023-03-31T20:44:45;2.0800000000000005;;;0.74;;
74788;SDS011;63313;48.258;12.518;2023-03-31T20:50:12;1.7600000000000002;;;0.85;;
74788;SDS011;63313;48.258;12.518;2023-03-31T20:55:39;5.5;;;1.11;;
74788;SDS011;63313;48.258;12.518;2023-03-31T21:01:06;2.0200000000000005;;;0.9199999999999999;;
74788;SDS011;63313;48.258;12.518;2023-03-31T21:06:35;2.21;;;1.02;;
74788;SDS011;63313;48.258;12.518;2023-03-31T21:12:02;7.219999999999999;;;1.2499999999999998;;
74788;SDS011;63313;48.258;12.518;2023-03-31T21:17:29;1.7900000000000003;;;0.96;;
74788;SDS011;63313;48.258;12.518;2023-03-31T21:22:56;4.33;;;1.06;;
74788;SDS011;63313;48.258;12.518;2023-03-31T21:28:24;2.56;;;1.2400000000000002;;
74788;SDS011;63313;48.258;12.518;2023-03-31T21:33:52;3.54;;;1.4700000000000002;;
74788;SDS011;63313;48.258;12.518;2023-03-31T21:39:19;4.82;;;1.4200000000000002;;
74788;SDS011;63313;48.258;12.518;2023-03-31T21:44:46;3.41;;;1.19;;
74788;SDS011;63313;48.258;12.518;2023-03-31T21:50:13;5.42;;;1.08;;
74788;SDS011;63313;48.258;12.518;2023-03-31T21:55:40;8.06;;;1.5399999999999998;;
74788;SDS011;63313;48.258;12.518;2023-03-31T22:01:07;5.409999999999999;;;1.1099999999999999;;
74788;SDS011;63313;48.258;12.518;2023-03-31T22:06:34;3.7599999999999993;;;1.0899999999999999;;
74788;SDS011;63313;48.258;12.518;2023-03-31T22:12:01;4.58;;;1.5799999999999998;;
74788;SDS011;63313;48.258;12.518;2023-03-31T22:17:28;2.85;;;1.08;;
74788;SDS011;63313;48.258;12.518;2023-03-31T22:22:55;7.56;;;1.7600000000000002;;
74788;SDS011;63313;48.258;12.518;2023-03-31T22:28:22;4.59;;;1.4200000000000002;;
74788;SDS011;63313;48.258;12.518;2023-03-31T22:33:49;4.49;;;1.48;;
74788;SDS011;63313;48.258;12.518;2023-03-31T22:39:17;4.279999999999999;;;1.2399999999999998;;
74788;SDS011;63313;48.258;12.518;2023-03-31T22:44:44;4.56;;;1.52;;
74788;SDS011;63313;48.258;12.518;2023-03-31T22:50:11;10.709999999999999;;;1.85;;
74788;SDS011;63313;48.258;12.518;2023-03-31T22:55:39;4.33;;;1.08;;
74788;SDS011;63313;48.258;12.518;2023-03-31T23:01:07;7.610000000000001;;;1.27;;
74788;SDS011;63313;48.258;12.518;2023-03-31T23:06:37;4.21;;;1.1;;
74788;SDS011;63313;48.258;12.518;2023-03-31T23:12:04;4.11;;;1.14;;
74788;SDS011;63313;48.258;12.518;2023-03-31T23:17:31;1.7099999999999997;;;0.8600000000000001;;
74788;SDS011;63313;48.258;12.518;2023-03-31T23:22:58;2.8600000000000003;;;0.8800000000000001;;
74788;SDS011;63313;48.258;12.518;2023-03-31T23:28:25;2.5100000000000002;;;0.9800000000000001;;
74788;SDS011;63313;48.258;12.518;2023-03-31T23:33:52;3.62;;;0.89;;
74788;SDS011;63313;48.258;12.518;2023-03-31T23:39:20;4.4799999999999995;;;1.16;;
74788;SDS011;63313;48.258;12.518;2023-03-31T23:44:47;3.22;;;0.8;;
74788;SDS011;63313;48.258;12.518;2023-03-31T23:50:14;2.25;;;1.02;;
74788;SDS011;63313;48.258;12.518;2023-03-31T23:55:41;3.2699999999999996;;;1.12;;
